createdAt,value
2023-05-21T00:02:00.347Z,14.90
2023-05-21T00:04:29.861Z,14.91
2023-05-21T00:07:01.329Z,14.91
2023-05-21T00:09:29.772Z,14.92
2023-05-21T00:11:58.174Z,14.91
2023-05-21T00:14:27.070Z,14.90
2023-05-21T00:16:55.489Z,14.90
2023-05-21T00:19:23.991Z,14.89
2023-05-21T00:21:52.931Z,14.88
2023-05-21T00:24:21.418Z,14.87
2023-05-21T00:26:49.817Z,14.87
2023-05-21T00:29:18.309Z,14.86
2023-05-21T00:31:46.921Z,14.84
2023-05-21T00:34:15.391Z,14.82
2023-05-21T00:36:45.990Z,14.81
2023-05-21T00:39:14.555Z,14.80
2023-05-21T00:41:43.306Z,14.78
2023-05-21T00:44:14.312Z,14.76
2023-05-21T00:46:44.389Z,14.74
2023-05-21T00:49:13.819Z,14.72
2023-05-21T00:51:45.231Z,14.71
2023-05-21T00:54:13.739Z,14.68
2023-05-21T00:56:42.568Z,14.67
2023-05-21T00:59:11.072Z,14.64
2023-05-21T01:01:39.808Z,14.62
2023-05-21T01:04:08.185Z,14.59
2023-05-21T01:06:37.863Z,14.54
2023-05-21T01:09:07.332Z,14.50
2023-05-21T01:11:46.700Z,14.46
2023-05-21T01:14:16.964Z,14.42
2023-05-21T01:16:49.660Z,14.38
2023-05-21T01:19:26.549Z,14.33
2023-05-21T01:22:05.141Z,14.29
2023-05-21T01:24:34.927Z,14.24
2023-05-21T01:27:07.617Z,14.20
2023-05-21T01:29:36.318Z,14.15
2023-05-21T01:32:09.991Z,14.11
2023-05-21T01:35:04.545Z,14.07
2023-05-21T01:37:44.633Z,14.02
2023-05-21T01:40:53.501Z,13.98
2023-05-21T01:43:22.803Z,13.94
2023-05-21T01:45:55.871Z,13.90
2023-05-21T01:48:28.078Z,13.87
2023-05-21T01:51:02.228Z,13.84
2023-05-21T01:53:30.930Z,13.81
2023-05-21T01:55:59.455Z,13.77
2023-05-21T01:58:27.914Z,13.75
2023-05-21T02:00:57.059Z,13.72
2023-05-21T02:03:31.257Z,13.68
2023-05-21T02:05:59.877Z,13.64
2023-05-21T02:08:28.316Z,13.59
2023-05-21T02:10:56.832Z,13.55
2023-05-21T02:13:26.859Z,13.51
2023-05-21T02:15:56.343Z,13.46
2023-05-21T02:18:26.390Z,13.42
2023-05-21T02:20:54.842Z,13.39
2023-05-21T02:23:23.324Z,13.37
2023-05-21T02:25:51.936Z,13.35
2023-05-21T02:28:21.410Z,13.33
2023-05-21T02:30:49.919Z,13.30
2023-05-21T02:33:20.232Z,13.26
2023-05-21T02:35:48.775Z,13.24
2023-05-21T02:38:19.581Z,13.21
2023-05-21T02:40:48.038Z,13.20
2023-05-21T02:43:16.794Z,13.18
2023-05-21T02:45:47.039Z,13.14
2023-05-21T02:48:16.259Z,13.11
2023-05-21T02:50:44.736Z,13.09
2023-05-21T02:53:13.117Z,13.06
2023-05-21T02:55:42.257Z,13.02
2023-05-21T02:58:13.547Z,12.99
2023-05-21T03:00:41.964Z,12.96
2023-05-21T03:03:11.739Z,12.94
2023-05-21T03:05:40.442Z,12.91
2023-05-21T03:08:09.688Z,12.88
2023-05-21T03:10:38.214Z,12.86
2023-05-21T03:13:09.537Z,12.83
2023-05-21T03:15:39.456Z,12.81
2023-05-21T03:18:08.277Z,12.80
2023-05-21T03:20:37.369Z,12.80
2023-05-21T03:23:05.807Z,12.80
2023-05-21T03:25:34.640Z,12.81
2023-05-21T03:28:03.217Z,12.82
2023-05-21T03:30:31.609Z,12.82
2023-05-21T03:33:00.238Z,12.83
2023-05-21T03:35:28.737Z,12.83
2023-05-21T03:37:57.145Z,12.84
2023-05-21T03:40:25.813Z,12.85
2023-05-21T03:42:54.199Z,12.87
2023-05-21T03:45:22.649Z,12.89
2023-05-21T03:47:51.212Z,12.91
2023-05-21T03:50:19.658Z,12.93
2023-05-21T03:52:48.060Z,12.96
2023-05-21T03:55:16.493Z,12.98
2023-05-21T03:57:46.541Z,13.00
2023-05-21T04:00:15.354Z,13.02
2023-05-21T04:02:43.959Z,13.05
2023-05-21T04:05:12.464Z,13.09
2023-05-21T04:07:40.989Z,13.14
2023-05-21T04:10:09.549Z,13.19
2023-05-21T04:12:37.978Z,13.24
2023-05-21T04:15:07.305Z,13.31
2023-05-21T04:17:37.965Z,13.38
2023-05-21T04:20:07.681Z,13.45
2023-05-21T04:22:36.195Z,13.52
2023-05-21T04:25:05.208Z,13.59
2023-05-21T04:27:34.696Z,13.67
2023-05-21T04:30:05.048Z,13.75
2023-05-21T04:32:35.022Z,13.83
2023-05-21T04:35:04.495Z,13.92
2023-05-21T04:37:35.349Z,14.01
2023-05-21T04:40:04.354Z,14.10
2023-05-21T04:42:33.180Z,14.20
2023-05-21T04:45:02.154Z,14.30
2023-05-21T04:47:30.589Z,14.40
2023-05-21T04:49:59.515Z,14.50
2023-05-21T04:52:27.969Z,14.61
2023-05-21T04:54:57.301Z,14.71
2023-05-21T04:57:25.862Z,14.82
2023-05-21T04:59:54.267Z,14.92
2023-05-21T05:02:22.739Z,15.03
2023-05-21T05:04:51.169Z,15.14
2023-05-21T05:07:19.537Z,15.24
2023-05-21T05:09:48.000Z,15.34
2023-05-21T05:12:16.391Z,15.44
2023-05-21T05:14:44.754Z,15.55
2023-05-21T05:17:16.408Z,15.65
2023-05-21T05:19:44.805Z,15.76
2023-05-21T05:22:13.696Z,15.87
2023-05-21T05:24:42.170Z,15.99
2023-05-21T05:27:10.649Z,16.11
2023-05-21T05:29:39.227Z,16.22
2023-05-21T05:32:08.096Z,16.34
2023-05-21T05:34:38.109Z,16.46
2023-05-21T05:37:06.883Z,16.58
2023-05-21T05:39:35.487Z,16.71
2023-05-21T05:42:04.224Z,16.83
2023-05-21T05:44:32.668Z,16.95
2023-05-21T05:47:01.054Z,17.06
2023-05-21T05:49:29.387Z,17.18
2023-05-21T05:51:57.829Z,17.31
2023-05-21T05:54:26.226Z,17.42
2023-05-21T05:56:54.570Z,17.53
2023-05-21T05:59:22.940Z,17.65
2023-05-21T06:09:18.341Z,18.11
2023-05-21T06:11:46.718Z,18.22
2023-05-21T06:14:15.228Z,18.33
2023-05-21T06:16:43.598Z,18.44
2023-05-21T06:19:12.043Z,18.54
2023-05-21T06:21:40.677Z,18.63
2023-05-21T06:24:09.309Z,18.71
2023-05-21T06:26:37.696Z,18.78
2023-05-21T06:29:06.408Z,18.87
2023-05-21T06:31:35.261Z,18.96
2023-05-21T06:34:04.250Z,19.05
2023-05-21T06:36:32.768Z,19.15
2023-05-21T06:39:01.341Z,19.24
2023-05-21T06:41:29.863Z,19.35
2023-05-21T06:43:58.326Z,19.45
2023-05-21T06:46:26.830Z,19.53
2023-05-21T06:48:55.536Z,19.63
2023-05-21T06:51:24.057Z,19.72
2023-05-21T06:53:53.188Z,19.82
2023-05-21T06:56:22.146Z,19.90
2023-05-21T06:58:50.514Z,20.00
2023-05-21T07:01:19.277Z,20.11
2023-05-21T07:03:48.768Z,20.21
2023-05-21T07:06:17.289Z,20.32
2023-05-21T07:08:46.090Z,20.44
2023-05-21T07:11:14.835Z,20.54
2023-05-21T07:13:43.360Z,20.64
2023-05-21T07:16:11.810Z,20.74
2023-05-21T07:18:40.314Z,20.83
2023-05-21T07:21:08.734Z,20.94
2023-05-21T07:23:37.265Z,21.03
2023-05-21T07:26:05.848Z,21.12
2023-05-21T07:28:34.293Z,21.20
2023-05-21T07:31:03.077Z,21.28
2023-05-21T07:33:31.609Z,21.34
2023-05-21T07:36:00.151Z,21.42
2023-05-21T07:38:28.597Z,21.51
2023-05-21T07:40:57.470Z,21.60
2023-05-21T07:43:26.266Z,21.67
2023-05-21T07:45:54.892Z,21.73
2023-05-21T07:48:23.440Z,21.80
2023-05-21T07:50:52.787Z,21.88
2023-05-21T07:53:21.226Z,21.94
2023-05-21T07:55:51.351Z,22.04
2023-05-21T07:58:20.297Z,22.12
2023-05-21T08:00:48.892Z,22.21
2023-05-21T08:03:18.727Z,22.31
2023-05-21T08:05:50.776Z,22.41
2023-05-21T08:08:22.080Z,22.52
2023-05-21T08:10:50.704Z,22.63
2023-05-21T08:13:19.279Z,22.74
2023-05-21T08:15:51.248Z,22.85
2023-05-21T08:18:23.909Z,22.94
2023-05-21T08:20:52.470Z,23.04
2023-05-21T08:23:21.221Z,23.16
2023-05-21T08:25:49.871Z,23.27
2023-05-21T08:28:18.428Z,23.39
2023-05-21T08:30:46.891Z,23.50
2023-05-21T08:33:15.587Z,23.62
2023-05-21T08:35:44.019Z,23.76
2023-05-21T08:38:12.372Z,23.90
2023-05-21T08:40:41.597Z,24.02
2023-05-21T08:43:14.561Z,24.15
2023-05-21T08:45:53.221Z,24.28
2023-05-21T08:48:24.150Z,24.40
2023-05-21T08:50:55.104Z,24.54
2023-05-21T08:57:07.734Z,24.81
2023-05-21T09:03:03.117Z,25.22
2023-05-21T09:17:15.405Z,26.06
2023-05-21T09:20:37.970Z,26.24
2023-05-21T09:23:12.564Z,26.45
2023-05-21T09:25:42.112Z,26.64
2023-05-21T09:28:19.956Z,26.79
2023-05-21T09:44:57.993Z,27.94
2023-05-21T09:51:58.967Z,28.37
2023-05-21T09:54:33.530Z,28.56
2023-05-21T09:57:04.902Z,28.76
2023-05-21T09:59:38.997Z,28.94
2023-05-21T10:02:21.852Z,29.12
2023-05-21T10:04:53.033Z,29.20
2023-05-21T10:07:26.417Z,29.29
2023-05-21T10:09:57.920Z,29.42
2023-05-21T10:12:29.077Z,29.52
2023-05-21T10:15:03.837Z,29.63
2023-05-21T10:17:32.733Z,29.78
2023-05-21T10:20:05.016Z,30.00
2023-05-21T10:22:34.494Z,30.22
2023-05-21T10:25:03.897Z,30.43
2023-05-21T10:27:34.702Z,30.61
2023-05-21T10:30:06.348Z,30.70
2023-05-21T10:32:35.498Z,30.82
2023-05-21T10:35:04.474Z,31.02
2023-05-21T10:37:32.877Z,31.19
2023-05-21T10:40:02.427Z,31.38
2023-05-21T10:42:30.817Z,31.60
2023-05-21T10:45:48.675Z,31.84
2023-05-21T10:48:41.531Z,32.07
2023-05-21T10:51:23.333Z,32.29
2023-05-21T10:54:32.580Z,32.50
2023-05-21T10:57:14.967Z,32.65
2023-05-21T10:59:47.203Z,32.80
2023-05-21T11:02:17.868Z,33.00
2023-05-21T11:04:58.985Z,33.13
2023-05-21T11:08:22.342Z,33.31
2023-05-21T11:10:55.372Z,33.58
2023-05-21T11:13:46.291Z,33.77
2023-05-21T11:16:16.694Z,33.93
2023-05-21T11:18:45.130Z,34.10
2023-05-21T11:21:18.772Z,34.41
2023-05-21T11:24:20.508Z,34.70
2023-05-21T11:26:48.931Z,35.02
2023-05-21T11:29:18.257Z,35.25
2023-05-21T11:31:48.915Z,35.37
2023-05-21T11:34:28.586Z,35.58
2023-05-21T11:37:21.012Z,35.95
2023-05-21T11:39:51.315Z,36.36
2023-05-21T11:42:34.171Z,36.59
2023-05-21T11:45:04.345Z,36.73
2023-05-21T11:47:33.065Z,36.90
2023-05-21T11:50:04.236Z,37.00
2023-05-21T11:52:35.779Z,37.05
2023-05-21T11:55:04.706Z,37.08
2023-05-21T11:57:33.293Z,37.14
2023-05-21T12:00:08.619Z,37.24
2023-05-21T12:02:37.546Z,37.31
2023-05-21T12:05:07.262Z,37.39
2023-05-21T12:07:35.830Z,37.57
2023-05-21T12:10:04.633Z,37.66
2023-05-21T12:12:50.000Z,37.71
2023-05-21T12:15:17.992Z,37.80
2023-05-21T12:17:51.135Z,37.83
2023-05-21T12:20:20.033Z,37.82
2023-05-21T12:22:50.332Z,37.94
2023-05-21T12:25:21.300Z,38.14
2023-05-21T12:27:52.833Z,38.21
2023-05-21T12:30:21.502Z,38.25
2023-05-21T12:32:51.223Z,38.26
2023-05-21T12:35:25.305Z,38.35
2023-05-21T12:37:53.919Z,38.61
2023-05-21T12:44:13.493Z,38.90
2023-05-21T12:46:43.008Z,38.96
2023-05-21T12:49:53.487Z,39.12
2023-05-21T12:52:24.672Z,39.30
2023-05-21T12:54:57.924Z,39.50
2023-05-21T12:57:39.232Z,39.70
2023-05-21T13:00:19.985Z,39.66
2023-05-21T13:02:48.652Z,38.78
2023-05-21T13:05:18.701Z,38.14
2023-05-21T13:07:47.887Z,37.47
2023-05-21T13:10:16.946Z,37.09
2023-05-21T13:12:46.059Z,37.38
2023-05-21T13:15:15.199Z,38.05
2023-05-21T13:17:44.380Z,38.75
2023-05-21T13:20:20.677Z,39.42
2023-05-21T13:22:52.102Z,39.94
2023-05-21T13:25:25.328Z,40.14
2023-05-21T13:27:54.929Z,40.38
2023-05-21T13:30:33.396Z,40.66
2023-05-21T13:33:03.889Z,40.98
2023-05-21T13:35:32.734Z,41.29
2023-05-21T13:38:21.371Z,41.47
2023-05-21T13:40:49.954Z,41.67
2023-05-21T13:43:20.302Z,41.80
2023-05-21T13:45:49.827Z,41.89
2023-05-21T13:48:18.546Z,42.02
2023-05-21T13:50:53.381Z,42.20
2023-05-21T13:53:22.638Z,42.20
2023-05-21T13:55:51.289Z,42.03
2023-05-21T13:58:19.718Z,41.84
2023-05-21T14:00:48.207Z,41.87
2023-05-21T14:03:16.777Z,42.08
2023-05-21T14:05:45.865Z,42.35
2023-05-21T14:08:16.659Z,42.79
2023-05-21T14:10:45.004Z,43.22
2023-05-21T14:13:19.422Z,43.67
2023-05-21T14:15:48.637Z,44.07
2023-05-21T14:18:17.090Z,44.39
2023-05-21T14:20:45.562Z,44.56
2023-05-21T14:23:15.297Z,44.56
2023-05-21T14:25:43.735Z,44.64
2023-05-21T14:28:12.281Z,44.73
2023-05-21T14:30:40.699Z,44.64
2023-05-21T14:33:09.174Z,44.44
2023-05-21T14:35:37.924Z,43.69
2023-05-21T14:38:06.579Z,42.29
2023-05-21T14:50:43.716Z,37.47
2023-05-21T14:53:12.512Z,36.91
2023-05-21T14:55:41.157Z,36.93
2023-05-21T14:58:09.845Z,37.29
2023-05-21T15:00:38.752Z,37.84
2023-05-21T15:03:10.179Z,38.04
2023-05-21T15:05:39.249Z,38.03
2023-05-21T15:08:09.631Z,37.94
2023-05-21T15:10:38.186Z,37.91
2023-05-21T15:13:06.603Z,38.17
2023-05-21T15:15:38.091Z,38.50
2023-05-21T15:18:06.830Z,38.96
2023-05-21T15:20:35.356Z,39.47
2023-05-21T15:23:16.204Z,39.94
2023-05-21T15:25:46.019Z,40.34
2023-05-21T15:28:14.610Z,40.60
2023-05-21T15:30:43.087Z,40.75
2023-05-21T15:33:11.974Z,40.87
2023-05-21T15:35:41.076Z,40.88
2023-05-21T15:38:10.075Z,40.83
2023-05-21T15:40:42.371Z,40.79
2023-05-21T15:43:10.916Z,40.82
2023-05-21T15:45:39.599Z,40.79
2023-05-21T15:48:08.458Z,40.79
2023-05-21T15:50:38.256Z,40.90
2023-05-21T15:53:06.770Z,41.07
2023-05-21T15:55:35.270Z,41.40
2023-05-21T15:58:04.078Z,41.78
2023-05-21T16:00:32.501Z,42.09
2023-05-21T16:03:01.028Z,42.34
2023-05-21T16:05:29.786Z,42.69
2023-05-21T16:07:58.215Z,43.05
2023-05-21T16:10:26.613Z,43.40
2023-05-21T16:12:55.028Z,43.79
2023-05-21T16:15:23.465Z,44.16
2023-05-21T16:17:51.879Z,44.53
2023-05-21T16:20:21.825Z,44.74
2023-05-21T16:22:50.453Z,44.76
2023-05-21T16:25:19.055Z,44.64
2023-05-21T16:27:48.968Z,44.45
2023-05-21T16:30:17.555Z,44.72
2023-05-21T16:32:46.109Z,44.87
2023-05-21T16:35:14.640Z,44.98
2023-05-21T16:37:43.039Z,44.93
2023-05-21T16:40:13.821Z,44.30
2023-05-21T16:42:43.381Z,43.26
2023-05-21T16:45:19.848Z,42.39
2023-05-21T16:47:50.200Z,41.63
2023-05-21T16:50:20.003Z,40.60
2023-05-21T16:52:48.404Z,38.65
2023-05-21T16:55:16.967Z,37.17
2023-05-21T16:57:46.098Z,36.07
2023-05-21T17:00:15.080Z,35.21
2023-05-21T17:02:43.581Z,34.39
2023-05-21T17:05:12.216Z,33.74
2023-05-21T17:07:40.751Z,33.52
2023-05-21T17:10:09.795Z,33.44
2023-05-21T17:12:38.238Z,33.45
2023-05-21T17:15:07.730Z,33.43
2023-05-21T17:17:36.158Z,33.42
2023-05-21T17:20:05.210Z,33.40
2023-05-21T17:22:33.629Z,33.40
2023-05-21T17:25:02.701Z,33.46
2023-05-21T17:27:31.167Z,33.60
2023-05-21T17:29:59.671Z,33.83
2023-05-21T17:32:28.097Z,33.97
2023-05-21T17:34:56.437Z,33.90
2023-05-21T17:37:24.869Z,33.71
2023-05-21T17:39:53.279Z,33.47
2023-05-21T17:42:21.695Z,33.29
2023-05-21T17:44:50.086Z,33.21
2023-05-21T17:47:18.529Z,33.18
2023-05-21T17:49:47.003Z,33.09
2023-05-21T17:52:15.618Z,32.94
2023-05-21T17:54:46.685Z,32.64
2023-05-21T17:57:16.137Z,32.22
2023-05-21T17:59:45.570Z,31.72
2023-05-21T18:02:14.018Z,31.15
2023-05-21T18:04:42.448Z,30.65
2023-05-21T18:07:11.045Z,30.16
2023-05-21T18:09:39.456Z,29.72
2023-05-21T18:12:07.974Z,29.29
2023-05-21T18:14:36.438Z,28.89
2023-05-21T18:17:06.028Z,28.46
2023-05-21T18:19:34.554Z,28.05
2023-05-21T18:22:04.443Z,27.63
2023-05-21T18:24:32.859Z,27.21
2023-05-21T18:27:01.280Z,26.84
2023-05-21T18:29:29.698Z,26.50
2023-05-21T18:31:58.108Z,26.19
2023-05-21T18:34:26.476Z,25.88
2023-05-21T18:36:54.930Z,25.57
2023-05-21T18:39:24.822Z,25.27
2023-05-21T18:42:11.471Z,25.00
2023-05-21T18:44:41.186Z,24.72
2023-05-21T18:47:09.604Z,24.45
2023-05-21T18:49:38.086Z,24.20
2023-05-21T18:52:07.689Z,23.97
2023-05-21T18:54:36.373Z,23.77
2023-05-21T18:57:05.099Z,23.56
2023-05-21T18:59:33.645Z,23.34
2023-05-21T19:02:04.569Z,23.11
2023-05-21T19:04:33.341Z,22.91
2023-05-21T19:07:03.047Z,22.72
2023-05-21T19:09:31.511Z,22.54
2023-05-21T19:12:01.034Z,22.35
2023-05-21T19:14:29.549Z,22.16
2023-05-21T19:16:58.061Z,21.98
2023-05-21T19:19:26.783Z,21.81
2023-05-21T19:21:55.259Z,21.66
2023-05-21T19:24:23.742Z,21.53
2023-05-21T19:26:52.156Z,21.39
2023-05-21T19:29:21.612Z,21.27
2023-05-21T19:31:50.075Z,21.15
2023-05-21T19:34:18.826Z,21.03
2023-05-21T19:36:53.443Z,20.93
2023-05-21T19:39:22.365Z,20.81
2023-05-21T19:41:52.873Z,20.70
2023-05-21T19:44:21.469Z,20.59
2023-05-21T19:46:50.155Z,20.48
2023-05-21T19:49:20.043Z,20.38
2023-05-21T19:51:49.625Z,20.28
2023-05-21T19:54:18.745Z,20.20
2023-05-21T19:56:47.316Z,20.10
2023-05-21T19:59:15.866Z,20.03
2023-05-21T20:01:44.867Z,19.94
2023-05-21T20:04:14.047Z,19.84
2023-05-21T20:06:42.561Z,19.74
2023-05-21T20:09:13.213Z,19.66
2023-05-21T20:11:42.447Z,19.58
2023-05-21T20:14:11.213Z,19.50
2023-05-21T20:16:39.661Z,19.42
2023-05-21T20:19:10.924Z,19.35
2023-05-21T20:21:39.415Z,19.27
2023-05-21T20:24:08.723Z,19.19
2023-05-21T20:26:37.238Z,19.12
2023-05-21T20:29:07.042Z,19.06
2023-05-21T20:31:36.011Z,18.98
2023-05-21T20:34:09.114Z,18.90
2023-05-21T20:36:40.472Z,18.83
2023-05-21T20:39:09.260Z,18.77
2023-05-21T20:41:38.779Z,18.71
2023-05-21T20:44:07.317Z,18.66
2023-05-21T20:46:41.278Z,18.60
2023-05-21T20:49:09.939Z,18.54
2023-05-21T20:51:38.383Z,18.49
2023-05-21T20:54:07.621Z,18.45
2023-05-21T20:56:42.338Z,18.40
2023-05-21T20:59:12.199Z,18.35
2023-05-21T21:01:41.614Z,18.30
2023-05-21T21:04:10.443Z,18.26
2023-05-21T21:06:40.437Z,18.21
2023-05-21T21:09:09.006Z,18.17
2023-05-21T21:11:37.661Z,18.13
2023-05-21T21:14:06.049Z,18.09
2023-05-21T21:16:34.631Z,18.03
2023-05-21T21:19:03.388Z,17.99
2023-05-21T21:21:32.280Z,17.93
2023-05-21T21:24:00.993Z,17.87
2023-05-21T21:26:29.428Z,17.83
2023-05-21T21:28:59.468Z,17.79
2023-05-21T21:31:29.632Z,17.74
2023-05-21T21:33:58.199Z,17.69
2023-05-21T21:36:28.906Z,17.64
2023-05-21T21:38:57.547Z,17.59
2023-05-21T21:41:26.411Z,17.55
2023-05-21T21:43:54.960Z,17.51
2023-05-21T21:46:25.670Z,17.47
2023-05-21T21:48:54.221Z,17.43
2023-05-21T21:51:23.622Z,17.39
2023-05-21T21:53:52.244Z,17.36
2023-05-21T21:56:20.964Z,17.32
2023-05-21T21:58:49.343Z,17.28
2023-05-21T22:01:17.980Z,17.24
2023-05-21T22:03:46.470Z,17.19
2023-05-21T22:06:14.964Z,17.16
2023-05-21T22:08:43.534Z,17.12
2023-05-21T22:11:12.367Z,17.08
2023-05-21T22:13:41.908Z,17.04
2023-05-21T22:16:11.950Z,16.99
2023-05-21T22:18:42.024Z,16.94
2023-05-21T22:21:14.251Z,16.90
2023-05-21T22:23:42.992Z,16.86
2023-05-21T22:26:11.425Z,16.82
2023-05-21T22:28:39.941Z,16.77
2023-05-21T22:31:08.349Z,16.72
2023-05-21T22:33:37.217Z,16.67
2023-05-21T22:36:06.247Z,16.62
2023-05-21T22:38:34.873Z,16.57
2023-05-21T22:41:03.843Z,16.53
2023-05-21T22:43:34.867Z,16.49
2023-05-21T22:46:03.634Z,16.43
2023-05-21T22:48:32.154Z,16.38
2023-05-21T22:51:02.000Z,16.33
2023-05-21T22:53:32.193Z,16.27
2023-05-21T22:56:01.140Z,16.22
2023-05-21T22:58:29.562Z,16.18
2023-05-21T23:00:58.018Z,16.14
2023-05-21T23:03:26.814Z,16.11
2023-05-21T23:05:55.295Z,16.08
2023-05-21T23:08:23.772Z,16.04
2023-05-21T23:10:52.268Z,16.02
2023-05-21T23:13:20.789Z,15.98
2023-05-21T23:15:50.795Z,15.96
2023-05-21T23:18:19.759Z,15.92
2023-05-21T23:20:48.338Z,15.88
2023-05-21T23:23:17.104Z,15.85
2023-05-21T23:25:45.641Z,15.81
2023-05-21T23:28:14.044Z,15.76
2023-05-21T23:30:42.485Z,15.73
2023-05-21T23:33:10.973Z,15.70
2023-05-21T23:35:39.591Z,15.66
2023-05-21T23:38:08.082Z,15.62
2023-05-21T23:40:37.202Z,15.57
2023-05-21T23:43:06.054Z,15.53
2023-05-21T23:45:34.607Z,15.50
2023-05-21T23:48:03.327Z,15.46
2023-05-21T23:50:31.800Z,15.42
2023-05-21T23:53:00.408Z,15.39
2023-05-21T23:55:28.823Z,15.34
2023-05-21T23:57:57.191Z,15.31
